sensor_id;sensor_type;location;lat;lon;timestamp;pressure;altitude;pressure_sealevel;temperature;humidity
41686;BME280;27370;42.764;23.432;2023-02-12T00:01:37;96578.41;;;-3.87;100.00
41686;BME280;27370;42.764;23.432;2023-02-12T00:04:02;96583.66;;;-3.68;100.00
41686;BME280;27370;42.764;23.432;2023-02-12T00:06:28;96566.31;;;-3.60;100.00
41686;BME280;27370;42.764;23.432;2023-02-12T00:08:55;96573.97;;;-3.59;100.00
41686;BME280;27370;42.764;23.432;2023-02-12T00:11:23;96569.97;;;-3.56;100.00
41686;BME280;27370;42.764;23.432;2023-02-12T00:13:49;96575.75;;;-3.54;100.00
41686;BME280;27370;42.764;23.432;2023-02-12T00:16:18;96590.66;;;-3.45;100.00
41686;BME280;27370;42.764;23.432;2023-02-12T00:18:44;96589.88;;;-3.45;100.00
41686;BME280;27370;42.764;23.432;2023-02-12T00:21:10;96587.41;;;-3.55;100.00
41686;BME280;27370;42.764;23.432;2023-02-12T00:23:38;96583.00;;;-3.46;100.00
41686;BME280;27370;42.764;23.432;2023-02-12T00:26:16;96583.63;;;-3.35;100.00
41686;BME280;27370;42.764;23.432;2023-02-12T00:28:46;96586.03;;;-3.53;100.00
41686;BME280;27370;42.764;23.432;2023-02-12T00:31:14;96559.03;;;-3.68;100.00
41686;BME280;27370;42.764;23.432;2023-02-12T00:33:40;96581.19;;;-3.64;100.00
41686;BME280;27370;42.764;23.432;2023-02-12T00:36:07;96571.28;;;-3.73;100.00
41686;BME280;27370;42.764;23.432;2023-02-12T00:38:34;96574.25;;;-3.93;100.00
41686;BME280;27370;42.764;23.432;2023-02-12T00:40:59;96575.06;;;-3.92;100.00
41686;BME280;27370;42.764;23.432;2023-02-12T00:43:26;96569.56;;;-3.96;100.00
41686;BME280;27370;42.764;23.432;2023-02-12T00:45:52;96558.88;;;-3.91;100.00
41686;BME280;27370;42.764;23.432;2023-02-12T00:48:18;96550.38;;;-3.88;100.00
41686;BME280;27370;42.764;23.432;2023-02-12T00:50:45;96528.63;;;-4.17;100.00
41686;BME280;27370;42.764;23.432;2023-02-12T00:53:12;96547.06;;;-4.12;100.00
41686;BME280;27370;42.764;23.432;2023-02-12T00:55:38;96530.09;;;-4.25;100.00
41686;BME280;27370;42.764;23.432;2023-02-12T00:58:04;96540.81;;;-4.35;100.00
41686;BME280;27370;42.764;23.432;2023-02-12T01:00:30;96546.66;;;-4.38;100.00
41686;BME280;27370;42.764;23.432;2023-02-12T01:02:56;96530.59;;;-4.42;100.00
41686;BME280;27370;42.764;23.432;2023-02-12T01:05:22;96545.31;;;-4.36;100.00
41686;BME280;27370;42.764;23.432;2023-02-12T01:07:50;96548.19;;;-4.51;100.00
41686;BME280;27370;42.764;23.432;2023-02-12T01:10:16;96557.69;;;-4.50;100.00
41686;BME280;27370;42.764;23.432;2023-02-12T01:12:42;96551.25;;;-4.44;100.00
41686;BME280;27370;42.764;23.432;2023-02-12T01:15:08;96559.22;;;-4.30;100.00
41686;BME280;27370;42.764;23.432;2023-02-12T01:17:35;96563.66;;;-4.07;100.00
41686;BME280;27370;42.764;23.432;2023-02-12T01:20:01;96544.66;;;-3.95;100.00
41686;BME280;27370;42.764;23.432;2023-02-12T01:22:26;96546.66;;;-3.87;100.00
41686;BME280;27370;42.764;23.432;2023-02-12T01:24:52;96544.75;;;-4.00;100.00
41686;BME280;27370;42.764;23.432;2023-02-12T01:27:18;96546.81;;;-3.97;100.00
41686;BME280;27370;42.764;23.432;2023-02-12T01:29:43;96547.22;;;-4.04;100.00
41686;BME280;27370;42.764;23.432;2023-02-12T01:32:10;96544.34;;;-4.07;100.00
41686;BME280;27370;42.764;23.432;2023-02-12T01:34:36;96531.13;;;-4.07;100.00
41686;BME280;27370;42.764;23.432;2023-02-12T01:37:02;96530.56;;;-4.04;100.00
41686;BME280;27370;42.764;23.432;2023-02-12T01:39:28;96524.47;;;-4.05;100.00
41686;BME280;27370;42.764;23.432;2023-02-12T01:41:54;96520.19;;;-4.01;100.00
41686;BME280;27370;42.764;23.432;2023-02-12T01:44:22;96513.25;;;-4.15;100.00
41686;BME280;27370;42.764;23.432;2023-02-12T01:46:59;96523.31;;;-3.98;100.00
41686;BME280;27370;42.764;23.432;2023-02-12T01:52:13;96521.25;;;-4.02;100.00
41686;BME280;27370;42.764;23.432;2023-02-12T01:54:40;96519.38;;;-4.01;100.00
41686;BME280;27370;42.764;23.432;2023-02-12T01:57:07;96528.41;;;-4.02;100.00
41686;BME280;27370;42.764;23.432;2023-02-12T01:59:34;96517.34;;;-4.04;100.00
41686;BME280;27370;42.764;23.432;2023-02-12T02:02:02;96526.91;;;-4.08;100.00
41686;BME280;27370;42.764;23.432;2023-02-12T02:04:32;96530.31;;;-4.08;100.00
41686;BME280;27370;42.764;23.432;2023-02-12T02:07:03;96524.53;;;-4.10;100.00
41686;BME280;27370;42.764;23.432;2023-02-12T02:09:32;96529.53;;;-4.08;100.00
41686;BME280;27370;42.764;23.432;2023-02-12T02:11:58;96532.94;;;-4.21;100.00
41686;BME280;27370;42.764;23.432;2023-02-12T02:14:43;96520.31;;;-4.24;100.00
41686;BME280;27370;42.764;23.432;2023-02-12T02:33:56;96527.75;;;-4.64;100.00
41686;BME280;27370;42.764;23.432;2023-02-12T02:36:50;96521.81;;;-4.56;100.00
41686;BME280;27370;42.764;23.432;2023-02-12T02:39:22;96520.91;;;-4.46;100.00
41686;BME280;27370;42.764;23.432;2023-02-12T02:42:07;96529.03;;;-4.43;100.00
41686;BME280;27370;42.764;23.432;2023-02-12T02:44:38;96530.13;;;-4.11;100.00
41686;BME280;27370;42.764;23.432;2023-02-12T02:47:10;96526.09;;;-3.76;100.00
41686;BME280;27370;42.764;23.432;2023-02-12T02:49:54;96524.06;;;-3.65;100.00
41686;BME280;27370;42.764;23.432;2023-02-12T02:52:30;96527.53;;;-3.37;100.00
41686;BME280;27370;42.764;23.432;2023-02-12T02:55:04;96530.75;;;-3.27;100.00
41686;BME280;27370;42.764;23.432;2023-02-12T02:57:37;96516.81;;;-3.19;100.00
41686;BME280;27370;42.764;23.432;2023-02-12T03:00:16;96522.59;;;-3.03;100.00
41686;BME280;27370;42.764;23.432;2023-02-12T03:02:49;96529.66;;;-2.98;100.00
41686;BME280;27370;42.764;23.432;2023-02-12T03:07:50;96532.78;;;-2.96;100.00
41686;BME280;27370;42.764;23.432;2023-02-12T03:10:23;96529.06;;;-2.95;100.00
41686;BME280;27370;42.764;23.432;2023-02-12T03:13:00;96520.59;;;-2.84;100.00
41686;BME280;27370;42.764;23.432;2023-02-12T03:15:38;96522.28;;;-2.88;100.00
41686;BME280;27370;42.764;23.432;2023-02-12T03:18:13;96516.31;;;-2.93;100.00
41686;BME280;27370;42.764;23.432;2023-02-12T03:20:47;96509.84;;;-3.01;100.00
41686;BME280;27370;42.764;23.432;2023-02-12T03:23:24;96521.22;;;-3.00;100.00
41686;BME280;27370;42.764;23.432;2023-02-12T03:28:30;96515.41;;;-2.89;100.00
41686;BME280;27370;42.764;23.432;2023-02-12T03:37:30;96508.25;;;-3.02;100.00
41686;BME280;27370;42.764;23.432;2023-02-12T03:45:41;96501.19;;;-2.93;100.00
41686;BME280;27370;42.764;23.432;2023-02-12T03:51:38;96513.91;;;-2.67;100.00
41686;BME280;27370;42.764;23.432;2023-02-12T03:54:06;96515.22;;;-2.56;100.00
41686;BME280;27370;42.764;23.432;2023-02-12T03:56:47;96513.84;;;-2.54;100.00
41686;BME280;27370;42.764;23.432;2023-02-12T03:59:18;96508.19;;;-2.61;100.00
41686;BME280;27370;42.764;23.432;2023-02-12T04:01:44;96492.88;;;-2.64;100.00
41686;BME280;27370;42.764;23.432;2023-02-12T04:04:09;96495.22;;;-2.62;100.00
41686;BME280;27370;42.764;23.432;2023-02-12T04:06:35;96496.06;;;-2.53;100.00
41686;BME280;27370;42.764;23.432;2023-02-12T04:09:04;96500.72;;;-2.36;100.00
41686;BME280;27370;42.764;23.432;2023-02-12T04:14:46;96501.00;;;-2.24;100.00
41686;BME280;27370;42.764;23.432;2023-02-12T04:20:14;96518.66;;;-2.56;100.00
41686;BME280;27370;42.764;23.432;2023-02-12T04:30:31;96513.94;;;-2.45;100.00
41686;BME280;27370;42.764;23.432;2023-02-12T04:33:01;96520.13;;;-2.27;100.00
41686;BME280;27370;42.764;23.432;2023-02-12T04:35:31;96525.22;;;-2.17;100.00
41686;BME280;27370;42.764;23.432;2023-02-12T04:40:40;96514.59;;;-2.17;100.00
41686;BME280;27370;42.764;23.432;2023-02-12T04:43:06;96519.34;;;-2.05;100.00
41686;BME280;27370;42.764;23.432;2023-02-12T04:45:34;96519.03;;;-2.04;100.00
41686;BME280;27370;42.764;23.432;2023-02-12T04:48:00;96521.53;;;-2.07;100.00
41686;BME280;27370;42.764;23.432;2023-02-12T04:50:37;96514.97;;;-2.10;100.00
41686;BME280;27370;42.764;23.432;2023-02-12T04:53:03;96524.19;;;-2.07;100.00
41686;BME280;27370;42.764;23.432;2023-02-12T04:55:28;96527.63;;;-2.07;100.00
41686;BME280;27370;42.764;23.432;2023-02-12T04:57:54;96529.66;;;-2.04;100.00
41686;BME280;27370;42.764;23.432;2023-02-12T05:00:19;96531.91;;;-1.97;100.00
41686;BME280;27370;42.764;23.432;2023-02-12T05:02:45;96527.97;;;-1.77;100.00
41686;BME280;27370;42.764;23.432;2023-02-12T05:05:10;96525.50;;;-1.74;100.00
41686;BME280;27370;42.764;23.432;2023-02-12T05:07:36;96523.78;;;-1.70;100.00
41686;BME280;27370;42.764;23.432;2023-02-12T05:10:02;96526.00;;;-1.94;100.00
41686;BME280;27370;42.764;23.432;2023-02-12T05:12:27;96536.63;;;-2.17;100.00
41686;BME280;27370;42.764;23.432;2023-02-12T05:14:53;96535.38;;;-2.33;100.00
41686;BME280;27370;42.764;23.432;2023-02-12T05:17:21;96540.63;;;-2.41;100.00
41686;BME280;27370;42.764;23.432;2023-02-12T05:19:47;96541.31;;;-2.50;100.00
41686;BME280;27370;42.764;23.432;2023-02-12T05:22:12;96548.13;;;-2.57;100.00
41686;BME280;27370;42.764;23.432;2023-02-12T05:24:37;96547.72;;;-2.51;100.00
41686;BME280;27370;42.764;23.432;2023-02-12T05:27:03;96544.50;;;-2.61;100.00
41686;BME280;27370;42.764;23.432;2023-02-12T05:29:28;96552.81;;;-2.40;100.00
41686;BME280;27370;42.764;23.432;2023-02-12T05:31:54;96553.34;;;-2.30;100.00
41686;BME280;27370;42.764;23.432;2023-02-12T05:34:19;96541.78;;;-2.34;100.00
41686;BME280;27370;42.764;23.432;2023-02-12T05:36:45;96553.34;;;-2.30;100.00
41686;BME280;27370;42.764;23.432;2023-02-12T05:39:10;96558.25;;;-2.23;100.00
41686;BME280;27370;42.764;23.432;2023-02-12T05:41:36;96555.00;;;-2.20;100.00
41686;BME280;27370;42.764;23.432;2023-02-12T05:44:03;96557.88;;;-2.08;100.00
41686;BME280;27370;42.764;23.432;2023-02-12T05:46:30;96566.88;;;-2.18;100.00
41686;BME280;27370;42.764;23.432;2023-02-12T05:48:55;96560.97;;;-2.14;100.00
41686;BME280;27370;42.764;23.432;2023-02-12T05:51:23;96563.81;;;-2.11;100.00
41686;BME280;27370;42.764;23.432;2023-02-12T05:53:52;96572.94;;;-2.03;100.00
41686;BME280;27370;42.764;23.432;2023-02-12T05:56:22;96561.59;;;-1.95;100.00
41686;BME280;27370;42.764;23.432;2023-02-12T05:58:53;96570.31;;;-1.72;100.00
41686;BME280;27370;42.764;23.432;2023-02-12T06:01:30;96552.81;;;-1.73;100.00
41686;BME280;27370;42.764;23.432;2023-02-12T06:04:01;96574.72;;;-1.68;100.00
41686;BME280;27370;42.764;23.432;2023-02-12T06:06:28;96574.78;;;-1.81;100.00
41686;BME280;27370;42.764;23.432;2023-02-12T06:08:55;96578.03;;;-1.85;100.00
41686;BME280;27370;42.764;23.432;2023-02-12T06:11:20;96579.59;;;-1.83;100.00
41686;BME280;27370;42.764;23.432;2023-02-12T06:13:47;96576.94;;;-1.83;100.00
41686;BME280;27370;42.764;23.432;2023-02-12T06:16:24;96583.91;;;-1.74;100.00
41686;BME280;27370;42.764;23.432;2023-02-12T06:18:52;96584.19;;;-1.75;100.00
41686;BME280;27370;42.764;23.432;2023-02-12T06:21:19;96576.25;;;-1.75;100.00
41686;BME280;27370;42.764;23.432;2023-02-12T06:23:45;96583.31;;;-1.62;100.00
41686;BME280;27370;42.764;23.432;2023-02-12T06:26:11;96578.16;;;-1.67;100.00
41686;BME280;27370;42.764;23.432;2023-02-12T06:28:36;96580.44;;;-1.52;100.00
41686;BME280;27370;42.764;23.432;2023-02-12T06:42:23;96593.75;;;-0.55;100.00
41686;BME280;27370;42.764;23.432;2023-02-12T06:44:49;96586.34;;;-0.84;100.00
41686;BME280;27370;42.764;23.432;2023-02-12T06:47:14;96588.19;;;-0.94;100.00
41686;BME280;27370;42.764;23.432;2023-02-12T06:49:40;96586.59;;;-1.03;100.00
41686;BME280;27370;42.764;23.432;2023-02-12T06:52:05;96584.34;;;-1.18;100.00
41686;BME280;27370;42.764;23.432;2023-02-12T06:54:31;96583.56;;;-1.50;100.00
41686;BME280;27370;42.764;23.432;2023-02-12T06:56:56;96580.81;;;-1.67;100.00
41686;BME280;27370;42.764;23.432;2023-02-12T06:59:22;96592.38;;;-1.63;100.00
41686;BME280;27370;42.764;23.432;2023-02-12T07:01:47;96584.59;;;-1.60;100.00
41686;BME280;27370;42.764;23.432;2023-02-12T07:04:13;96589.84;;;-1.46;100.00
41686;BME280;27370;42.764;23.432;2023-02-12T07:06:38;96588.59;;;-1.40;100.00
41686;BME280;27370;42.764;23.432;2023-02-12T07:09:04;96590.75;;;-1.19;100.00
41686;BME280;27370;42.764;23.432;2023-02-12T07:11:32;96590.78;;;-1.11;100.00
41686;BME280;27370;42.764;23.432;2023-02-12T07:13:58;96593.75;;;-1.12;100.00
41686;BME280;27370;42.764;23.432;2023-02-12T07:16:26;96589.47;;;-1.22;100.00
41686;BME280;27370;42.764;23.432;2023-02-12T07:18:52;96590.53;;;-1.32;100.00
41686;BME280;27370;42.764;23.432;2023-02-12T07:21:18;96586.72;;;-1.39;100.00
41686;BME280;27370;42.764;23.432;2023-02-12T07:23:49;96597.13;;;-1.29;100.00
41686;BME280;27370;42.764;23.432;2023-02-12T07:26:15;96586.66;;;-1.26;100.00
41686;BME280;27370;42.764;23.432;2023-02-12T07:28:40;96596.53;;;-1.17;100.00
41686;BME280;27370;42.764;23.432;2023-02-12T07:31:14;96608.47;;;-1.06;100.00
41686;BME280;27370;42.764;23.432;2023-02-12T07:33:41;96606.38;;;-0.87;100.00
41686;BME280;27370;42.764;23.432;2023-02-12T07:36:09;96611.69;;;-0.87;100.00
41686;BME280;27370;42.764;23.432;2023-02-12T07:38:36;96608.25;;;-0.87;100.00
41686;BME280;27370;42.764;23.432;2023-02-12T07:41:24;96603.41;;;-0.77;100.00
41686;BME280;27370;42.764;23.432;2023-02-12T07:44:11;96615.00;;;-0.73;100.00
41686;BME280;27370;42.764;23.432;2023-02-12T07:46:39;96615.00;;;-0.73;100.00
41686;BME280;27370;42.764;23.432;2023-02-12T07:49:06;96615.59;;;-0.84;100.00
41686;BME280;27370;42.764;23.432;2023-02-12T07:51:33;96609.97;;;-0.74;100.00
41686;BME280;27370;42.764;23.432;2023-02-12T07:54:00;96598.88;;;-0.76;100.00
41686;BME280;27370;42.764;23.432;2023-02-12T07:56:28;96604.41;;;-0.64;100.00
41686;BME280;27370;42.764;23.432;2023-02-12T07:58:55;96607.69;;;-0.58;100.00
41686;BME280;27370;42.764;23.432;2023-02-12T08:01:22;96608.50;;;-0.41;100.00
41686;BME280;27370;42.764;23.432;2023-02-12T08:03:48;96604.41;;;-0.55;100.00
41686;BME280;27370;42.764;23.432;2023-02-12T08:06:22;96603.31;;;-0.63;100.00
41686;BME280;27370;42.764;23.432;2023-02-12T08:08:52;96608.28;;;-0.70;100.00
41686;BME280;27370;42.764;23.432;2023-02-12T08:11:18;96623.75;;;-0.81;100.00
41686;BME280;27370;42.764;23.432;2023-02-12T08:13:45;96615.34;;;-1.05;100.00
41686;BME280;27370;42.764;23.432;2023-02-12T08:16:13;96622.00;;;-1.16;100.00
41686;BME280;27370;42.764;23.432;2023-02-12T08:18:39;96613.97;;;-1.03;100.00
41686;BME280;27370;42.764;23.432;2023-02-12T08:21:17;96625.28;;;-0.88;100.00
41686;BME280;27370;42.764;23.432;2023-02-12T08:23:44;96609.81;;;-1.17;100.00
41686;BME280;27370;42.764;23.432;2023-02-12T08:26:23;96623.88;;;-0.86;100.00
41686;BME280;27370;42.764;23.432;2023-02-12T08:28:53;96615.59;;;-0.84;100.00
41686;BME280;27370;42.764;23.432;2023-02-12T08:31:22;96631.91;;;-0.69;100.00
41686;BME280;27370;42.764;23.432;2023-02-12T08:33:49;96635.22;;;-0.54;100.00
41686;BME280;27370;42.764;23.432;2023-02-12T08:36:18;96638.25;;;-0.30;100.00
41686;BME280;27370;42.764;23.432;2023-02-12T08:38:45;96638.88;;;-0.42;100.00
41686;BME280;27370;42.764;23.432;2023-02-12T08:41:13;96639.50;;;-0.45;100.00
41686;BME280;27370;42.764;23.432;2023-02-12T08:43:39;96640.44;;;-0.32;100.00
41686;BME280;27370;42.764;23.432;2023-02-12T08:46:11;96630.75;;;-0.28;100.00
41686;BME280;27370;42.764;23.432;2023-02-12T08:48:38;96622.00;;;-0.11;100.00
41686;BME280;27370;42.764;23.432;2023-02-12T08:51:05;96628.59;;;0.17;100.00
41686;BME280;27370;42.764;23.432;2023-02-12T08:53:31;96636.56;;;0.35;100.00
41686;BME280;27370;42.764;23.432;2023-02-12T08:55:57;96641.22;;;0.64;100.00
41686;BME280;27370;42.764;23.432;2023-02-12T08:58:22;96637.28;;;0.78;100.00
41686;BME280;27370;42.764;23.432;2023-02-12T09:00:48;96656.25;;;0.85;100.00
41686;BME280;27370;42.764;23.432;2023-02-12T09:03:13;96649.63;;;1.00;100.00
41686;BME280;27370;42.764;23.432;2023-02-12T09:05:40;96660.84;;;1.23;100.00
41686;BME280;27370;42.764;23.432;2023-02-12T09:08:06;96648.47;;;1.18;100.00
41686;BME280;27370;42.764;23.432;2023-02-12T09:10:32;96671.41;;;1.49;100.00
41686;BME280;27370;42.764;23.432;2023-02-12T09:12:57;96668.72;;;1.78;100.00
41686;BME280;27370;42.764;23.432;2023-02-12T09:15:22;96667.41;;;1.93;100.00
41686;BME280;27370;42.764;23.432;2023-02-12T09:17:48;96658.38;;;2.06;100.00
41686;BME280;27370;42.764;23.432;2023-02-12T09:20:13;96656.31;;;2.45;100.00
41686;BME280;27370;42.764;23.432;2023-02-12T09:22:40;96677.53;;;2.50;100.00
41686;BME280;27370;42.764;23.432;2023-02-12T09:25:06;96658.03;;;2.50;100.00
41686;BME280;27370;42.764;23.432;2023-02-12T09:43:07;96676.50;;;3.08;100.00
41686;BME280;27370;42.764;23.432;2023-02-12T09:46:03;96675.66;;;2.84;100.00
41686;BME280;27370;42.764;23.432;2023-02-12T09:50:59;96664.44;;;2.36;100.00
41686;BME280;27370;42.764;23.432;2023-02-12T09:53:29;96665.41;;;2.32;100.00
41686;BME280;27370;42.764;23.432;2023-02-12T09:55:56;96662.16;;;2.05;100.00
41686;BME280;27370;42.764;23.432;2023-02-12T09:58:35;96674.38;;;1.86;100.00
41686;BME280;27370;42.764;23.432;2023-02-12T10:01:13;96686.28;;;1.59;100.00
41686;BME280;27370;42.764;23.432;2023-02-12T10:03:40;96664.31;;;1.53;100.00
41686;BME280;27370;42.764;23.432;2023-02-12T10:06:12;96668.53;;;1.63;100.00
41686;BME280;27370;42.764;23.432;2023-02-12T10:11:46;96682.75;;;2.05;100.00
41686;BME280;27370;42.764;23.432;2023-02-12T10:17:20;96680.44;;;1.95;100.00
41686;BME280;27370;42.764;23.432;2023-02-12T10:22:49;96693.19;;;1.89;100.00
41686;BME280;27370;42.764;23.432;2023-02-12T10:25:29;96686.88;;;1.94;100.00
41686;BME280;27370;42.764;23.432;2023-02-12T10:28:00;96691.66;;;2.09;100.00
41686;BME280;27370;42.764;23.432;2023-02-12T10:33:08;96686.66;;;2.28;100.00
41686;BME280;27370;42.764;23.432;2023-02-12T10:35:43;96676.16;;;2.23;100.00
41686;BME280;27370;42.764;23.432;2023-02-12T10:38:25;96684.56;;;2.34;100.00
41686;BME280;27370;42.764;23.432;2023-02-12T10:40:52;96677.84;;;2.49;100.00
41686;BME280;27370;42.764;23.432;2023-02-12T10:43:22;96663.56;;;2.44;100.00
41686;BME280;27370;42.764;23.432;2023-02-12T10:45:48;96682.22;;;2.53;100.00
41686;BME280;27370;42.764;23.432;2023-02-12T10:53:12;96669.19;;;2.85;100.00
41686;BME280;27370;42.764;23.432;2023-02-12T10:55:40;96669.84;;;2.82;100.00
41686;BME280;27370;42.764;23.432;2023-02-12T10:58:20;96680.72;;;2.97;100.00
41686;BME280;27370;42.764;23.432;2023-02-12T11:00:55;96680.63;;;3.06;100.00
41686;BME280;27370;42.764;23.432;2023-02-12T11:03:22;96683.66;;;3.29;100.00
41686;BME280;27370;42.764;23.432;2023-02-12T11:05:51;96687.34;;;3.36;100.00
41686;BME280;27370;42.764;23.432;2023-02-12T11:08:32;96693.19;;;3.51;100.00
41686;BME280;27370;42.764;23.432;2023-02-12T11:13:33;96684.84;;;3.64;100.00
41686;BME280;27370;42.764;23.432;2023-02-12T11:16:00;96686.28;;;3.74;100.00
41686;BME280;27370;42.764;23.432;2023-02-12T11:18:28;96676.34;;;3.75;100.00
41686;BME280;27370;42.764;23.432;2023-02-12T11:21:08;96677.91;;;3.63;100.00
41686;BME280;27370;42.764;23.432;2023-02-12T11:23:42;96678.78;;;3.43;100.00
41686;BME280;27370;42.764;23.432;2023-02-12T11:29:01;96680.34;;;3.44;100.00
41686;BME280;27370;42.764;23.432;2023-02-12T11:31:33;96676.00;;;3.52;100.00
41686;BME280;27370;42.764;23.432;2023-02-12T11:36:41;96653.34;;;3.61;100.00
41686;BME280;27370;42.764;23.432;2023-02-12T11:41:42;96669.19;;;3.91;100.00
41686;BME280;27370;42.764;23.432;2023-02-12T11:44:33;96675.91;;;3.85;100.00
41686;BME280;27370;42.764;23.432;2023-02-12T11:47:04;96684.59;;;3.69;100.00
41686;BME280;27370;42.764;23.432;2023-02-12T11:49:48;96681.91;;;3.82;100.00
41686;BME280;27370;42.764;23.432;2023-02-12T11:52:24;96677.00;;;4.08;100.00
41686;BME280;27370;42.764;23.432;2023-02-12T11:54:53;96674.09;;;3.77;100.00
41686;BME280;27370;42.764;23.432;2023-02-12T11:57:43;96674.66;;;3.46;100.00
41686;BME280;27370;42.764;23.432;2023-02-12T12:00:18;96682.13;;;3.40;100.00
41686;BME280;27370;42.764;23.432;2023-02-12T12:03:01;96665.38;;;3.31;100.00
41686;BME280;27370;42.764;23.432;2023-02-12T12:05:34;96675.50;;;3.13;100.00
41686;BME280;27370;42.764;23.432;2023-02-12T12:08:12;96688.91;;;3.25;100.00
41686;BME280;27370;42.764;23.432;2023-02-12T12:10:49;96686.69;;;3.27;100.00
41686;BME280;27370;42.764;23.432;2023-02-12T12:13:21;96681.59;;;3.47;100.00
41686;BME280;27370;42.764;23.432;2023-02-12T12:16:05;96682.59;;;3.42;100.00
41686;BME280;27370;42.764;23.432;2023-02-12T12:18:57;96679.88;;;3.30;100.00
41686;BME280;27370;42.764;23.432;2023-02-12T12:24:48;96671.06;;;3.17;100.00
41686;BME280;27370;42.764;23.432;2023-02-12T12:27:41;96689.38;;;3.52;100.00
41686;BME280;27370;42.764;23.432;2023-02-12T12:41:38;96694.63;;;3.48;100.00
41686;BME280;27370;42.764;23.432;2023-02-12T12:44:25;96692.72;;;3.49;100.00
41686;BME280;27370;42.764;23.432;2023-02-12T12:49:41;96696.50;;;3.35;100.00
41686;BME280;27370;42.764;23.432;2023-02-12T12:52:29;96701.78;;;3.44;100.00
41686;BME280;27370;42.764;23.432;2023-02-12T12:57:52;96693.72;;;4.17;100.00
41686;BME280;27370;42.764;23.432;2023-02-12T13:14:13;96712.19;;;4.47;100.00
41686;BME280;27370;42.764;23.432;2023-02-12T13:16:49;96707.75;;;4.26;100.00
41686;BME280;27370;42.764;23.432;2023-02-12T13:19:33;96706.59;;;4.12;100.00
41686;BME280;27370;42.764;23.432;2023-02-12T13:24:57;96719.84;;;3.84;100.00
41686;BME280;27370;42.764;23.432;2023-02-12T13:27:29;96718.88;;;3.88;100.00
41686;BME280;27370;42.764;23.432;2023-02-12T13:30:04;96709.72;;;3.65;100.00
41686;BME280;27370;42.764;23.432;2023-02-12T13:32:41;96714.75;;;3.66;100.00
41686;BME280;27370;42.764;23.432;2023-02-12T13:35:21;96710.72;;;3.73;100.00
41686;BME280;27370;42.764;23.432;2023-02-12T13:37:52;96717.88;;;3.68;100.00
41686;BME280;27370;42.764;23.432;2023-02-12T13:40:24;96719.88;;;3.72;100.00
41686;BME280;27370;42.764;23.432;2023-02-12T13:48:47;96727.47;;;3.94;100.00
41686;BME280;27370;42.764;23.432;2023-02-12T13:53:53;96738.16;;;3.82;100.00
41686;BME280;27370;42.764;23.432;2023-02-12T13:56:41;96734.50;;;3.86;100.00
41686;BME280;27370;42.764;23.432;2023-02-12T14:02:41;96748.22;;;3.73;100.00
41686;BME280;27370;42.764;23.432;2023-02-12T14:04:52;96753.25;;;3.86;100.00
41686;BME280;27370;42.764;23.432;2023-02-12T14:07:19;96743.19;;;3.83;100.00
41686;BME280;27370;42.764;23.432;2023-02-12T14:15:20;96760.19;;;3.87;100.00
41686;BME280;27370;42.764;23.432;2023-02-12T14:17:55;96772.78;;;3.87;100.00
41686;BME280;27370;42.764;23.432;2023-02-12T14:20:24;96776.59;;;3.98;100.00
41686;BME280;27370;42.764;23.432;2023-02-12T14:25:34;96774.00;;;3.65;100.00
41686;BME280;27370;42.764;23.432;2023-02-12T14:28:13;96772.63;;;3.47;100.00
41686;BME280;27370;42.764;23.432;2023-02-12T14:30:42;96782.28;;;3.39;100.00
41686;BME280;27370;42.764;23.432;2023-02-12T14:33:17;96772.50;;;3.43;100.00
41686;BME280;27370;42.764;23.432;2023-02-12T14:35:44;96785.13;;;3.55;100.00
41686;BME280;27370;42.764;23.432;2023-02-12T14:40:41;96797.72;;;3.54;100.00
41686;BME280;27370;42.764;23.432;2023-02-12T14:43:31;96808.66;;;3.61;100.00
41686;BME280;27370;42.764;23.432;2023-02-12T14:48:58;96801.13;;;3.76;100.00
41686;BME280;27370;42.764;23.432;2023-02-12T14:51:46;96810.31;;;3.87;100.00
41686;BME280;27370;42.764;23.432;2023-02-12T14:54:24;96807.19;;;3.85;100.00
41686;BME280;27370;42.764;23.432;2023-02-12T14:56:52;96813.22;;;3.94;100.00
41686;BME280;27370;42.764;23.432;2023-02-12T14:59:23;96816.00;;;3.97;99.28
41686;BME280;27370;42.764;23.432;2023-02-12T15:01:51;96826.22;;;3.71;100.00
41686;BME280;27370;42.764;23.432;2023-02-12T15:04:26;96835.03;;;3.72;100.00
41686;BME280;27370;42.764;23.432;2023-02-12T15:07:00;96835.28;;;3.79;100.00
41686;BME280;27370;42.764;23.432;2023-02-12T15:09:29;96842.41;;;3.62;100.00
41686;BME280;27370;42.764;23.432;2023-02-12T15:12:03;96845.19;;;3.66;100.00
41686;BME280;27370;42.764;23.432;2023-02-12T15:14:31;96852.78;;;3.64;100.00
41686;BME280;27370;42.764;23.432;2023-02-12T15:17:21;96845.19;;;3.66;100.00
41686;BME280;27370;42.764;23.432;2023-02-12T15:20:07;96860.09;;;3.55;100.00
41686;BME280;27370;42.764;23.432;2023-02-12T15:22:41;96865.63;;;3.17;100.00
41686;BME280;27370;42.764;23.432;2023-02-12T15:27:50;96874.50;;;2.88;100.00
41686;BME280;27370;42.764;23.432;2023-02-12T15:30:19;96888.00;;;3.12;100.00
41686;BME280;27370;42.764;23.432;2023-02-12T15:32:46;96890.81;;;3.16;100.00
41686;BME280;27370;42.764;23.432;2023-02-12T15:37:48;96894.59;;;2.94;100.00
41686;BME280;27370;42.764;23.432;2023-02-12T15:40:14;96901.19;;;2.96;100.00
41686;BME280;27370;42.764;23.432;2023-02-12T15:42:40;96902.56;;;3.02;100.00
41686;BME280;27370;42.764;23.432;2023-02-12T15:45:19;96912.72;;;2.88;100.00
41686;BME280;27370;42.764;23.432;2023-02-12T15:48:17;96910.91;;;2.71;100.00
41686;BME280;27370;42.764;23.432;2023-02-12T15:53:18;96915.06;;;2.31;100.00
41686;BME280;27370;42.764;23.432;2023-02-12T15:55:46;96922.97;;;2.57;100.00
41686;BME280;27370;42.764;23.432;2023-02-12T15:58:24;96920.97;;;2.45;100.00
41686;BME280;27370;42.764;23.432;2023-02-12T16:00:51;96933.91;;;2.34;100.00
41686;BME280;27370;42.764;23.432;2023-02-12T16:05:48;96939.63;;;2.15;100.00